Time;durP1;ratioP1;P1;durP2;ratioP2;P2;SDS_P1;SDS_P2;PMS_P1;PMS_P2;Temp;Humidity;BMP_temperature;BMP_pressure;BME280_temperature;BME280_humidity;BME280_pressure;Samples;Min_cycle;Max_cycle;Signal;HPM_P1;HPM_P2
2021/10/30 00:02:06;;;;;;;1.40;0.55;;;21.50;55.60;;;;;;5048204;28;20128;-61
2021/10/30 00:04:34;;;;;;;4.95;0.63;;;21.50;55.70;;;;;;5034528;28;20044;-62
2021/10/30 00:07:01;;;;;;;4.68;1.40;;;21.50;55.70;;;;;;5030636;28;20041;-60
2021/10/30 00:09:28;;;;;;;3.90;0.30;;;21.50;55.90;;;;;;5027467;28;20050;-60
2021/10/30 00:11:55;;;;;;;5.60;1.20;;;21.50;55.80;;;;;;5034448;28;20048;-60
2021/10/30 00:14:22;;;;;;;1.85;0.52;;;21.60;56.00;;;;;;5034669;28;20037;-62
2021/10/30 00:16:50;;;;;;;1.35;0.43;;;21.60;56.00;;;;;;5033845;28;20375;-61
2021/10/30 00:19:20;;;;;;;0.75;0.20;;;21.60;56.10;;;;;;5033339;28;20137;-61
2021/10/30 00:21:48;;;;;;;3.17;1.23;;;21.60;56.10;;;;;;5030516;28;20051;-61
2021/10/30 00:24:15;;;;;;;2.47;0.40;;;21.60;56.20;;;;;;5029342;28;20042;-61
2021/10/30 00:26:42;;;;;;;1.55;0.68;;;21.60;56.20;;;;;;5034249;28;20048;-61
2021/10/30 00:29:09;;;;;;;14.77;1.42;;;21.70;56.20;;;;;;5053360;28;20128;-61
2021/10/30 00:31:36;;;;;;;3.88;0.85;;;21.60;56.10;;;;;;5056077;28;20052;-62
2021/10/30 00:34:04;;;;;;;10.50;0.85;;;21.70;56.30;;;;;;5030476;28;20045;-61
2021/10/30 00:36:32;;;;;;;1.75;0.30;;;21.70;56.20;;;;;;5030837;28;20046;-62
2021/10/30 00:38:59;;;;;;;2.45;0.93;;;21.70;56.20;;;;;;5031004;28;20081;-61
2021/10/30 00:41:26;;;;;;;3.45;0.82;;;21.70;56.20;;;;;;5037065;28;20514;-63
2021/10/30 00:43:53;;;;;;;9.73;0.43;;;21.70;56.10;;;;;;5034262;28;20505;-61
2021/10/30 00:46:20;;;;;;;4.75;0.40;;;21.70;56.10;;;;;;5032431;28;20045;-61
2021/10/30 00:48:47;;;;;;;4.78;0.25;;;21.70;56.10;;;;;;5029327;28;20045;-61
2021/10/30 00:51:17;;;;;;;1.00;0.40;;;21.70;56.10;;;;;;5033509;28;20042;-62
2021/10/30 00:53:45;;;;;;;1.33;0.45;;;21.70;56.10;;;;;;5030093;28;20391;-61
2021/10/30 00:56:13;;;;;;;3.78;0.45;;;21.70;56.10;;;;;;5034181;28;20033;-61
2021/10/30 00:58:41;;;;;;;2.80;0.80;;;21.70;56.10;;;;;;5033359;28;20048;-61
2021/10/30 01:01:08;;;;;;;0.40;0.40;;;21.70;56.10;;;;;;5071960;28;20037;-62
2021/10/30 01:03:36;;;;;;;5.30;0.43;;;21.70;56.00;;;;;;5049646;28;20053;-61
2021/10/30 01:06:05;;;;;;;1.13;0.60;;;21.70;56.00;;;;;;5038393;28;20041;-62
2021/10/30 01:08:33;;;;;;;0.50;0.45;;;21.70;56.00;;;;;;5041098;28;20043;-62
2021/10/30 01:11:01;;;;;;;0.63;0.50;;;21.70;56.00;;;;;;5037803;28;20060;-62
2021/10/30 01:13:29;;;;;;;1.17;0.40;;;21.70;56.10;;;;;;5036586;28;20040;-61
2021/10/30 01:15:56;;;;;;;0.88;0.20;;;21.70;56.00;;;;;;5032572;28;20033;-61
2021/10/30 01:18:23;;;;;;;1.75;0.30;;;21.70;56.00;;;;;;5034943;28;20570;-61
2021/10/30 01:20:52;;;;;;;0.65;0.30;;;21.70;56.00;;;;;;5037401;28;20038;-61
2021/10/30 01:23:19;;;;;;;1.02;0.90;;;21.70;56.00;;;;;;5039711;28;20433;-60
2021/10/30 01:25:47;;;;;;;0.40;0.30;;;21.70;56.00;;;;;;5046754;28;20060;-60
2021/10/30 01:28:14;;;;;;;0.75;0.38;;;21.80;56.10;;;;;;5049722;28;20041;-61
2021/10/30 01:30:41;;;;;;;0.85;0.20;;;21.80;56.20;;;;;;5058266;28;20029;-62
2021/10/30 01:33:09;;;;;;;0.43;0.30;;;21.70;56.20;;;;;;5036456;28;20048;-62
2021/10/30 01:35:38;;;;;;;2.53;1.42;;;21.70;56.20;;;;;;5036854;28;20120;-63
2021/10/30 01:38:07;;;;;;;0.35;0.35;;;21.70;56.20;;;;;;5037092;28;20777;-62
2021/10/30 01:40:39;;;;;;;2.20;0.20;;;21.70;56.20;;;;;;5037229;28;20606;-62
2021/10/30 01:43:08;;;;;;;1.55;0.22;;;21.80;56.20;;;;;;5032358;28;20775;-62
2021/10/30 01:45:36;;;;;;;1.33;0.40;;;21.80;56.30;;;;;;5029561;28;20050;-63
2021/10/30 01:48:03;;;;;;;0.52;0.30;;;21.80;56.30;;;;;;5035744;28;20045;-62
2021/10/30 01:50:30;;;;;;;2.30;0.32;;;21.80;56.30;;;;;;5037162;28;20045;-61
2021/10/30 01:53:00;;;;;;;1.75;0.40;;;21.80;56.30;;;;;;5036992;28;20030;-61
2021/10/30 01:55:31;;;;;;;1.30;0.52;;;21.80;56.30;;;;;;5035984;28;20041;-61
2021/10/30 01:57:58;;;;;;;2.70;0.20;;;21.80;56.40;;;;;;5047829;28;20575;-60
2021/10/30 02:00:26;;;;;;;0.73;0.10;;;21.80;56.40;;;;;;5061553;28;20052;-61
2021/10/30 02:02:54;;;;;;;0.95;0.30;;;21.80;56.40;;;;;;5036868;28;20132;-60
2021/10/30 02:05:21;;;;;;;0.52;0.32;;;21.80;56.40;;;;;;5032410;28;20421;-61
2021/10/30 02:07:49;;;;;;;2.30;0.90;;;21.80;56.50;;;;;;5036824;28;20041;-62
2021/10/30 02:10:16;;;;;;;0.38;0.20;;;21.80;56.60;;;;;;5034400;28;20051;-62
2021/10/30 02:12:45;;;;;;;0.40;0.30;;;21.80;56.80;;;;;;5031561;28;20041;-61
2021/10/30 02:15:12;;;;;;;1.20;0.10;;;21.80;56.80;;;;;;5033693;28;20041;-62
2021/10/30 02:17:41;;;;;;;0.40;0.20;;;21.90;56.80;;;;;;5036618;28;20065;-62
2021/10/30 02:20:10;;;;;;;0.20;0.20;;;21.80;56.70;;;;;;5041647;28;20599;-61
2021/10/30 02:22:37;;;;;;;1.45;0.20;;;21.80;56.80;;;;;;5047428;28;20041;-62
2021/10/30 02:25:05;;;;;;;0.28;0.28;;;21.80;56.80;;;;;;5033255;28;20037;-61
2021/10/30 02:27:32;;;;;;;4.13;0.28;;;21.80;56.80;;;;;;5031816;28;20048;-61
2021/10/30 02:30:01;;;;;;;1.52;0.50;;;21.90;57.00;;;;;;5053654;28;20044;-60
2021/10/30 02:32:28;;;;;;;1.85;0.30;;;21.90;57.00;;;;;;5043514;28;20037;-61
2021/10/30 02:34:55;;;;;;;3.42;0.30;;;21.80;57.00;;;;;;5035988;28;20042;-61
2021/10/30 02:37:22;;;;;;;0.30;0.10;;;21.90;57.10;;;;;;5035050;28;20041;-61
2021/10/30 02:39:49;;;;;;;1.40;0.22;;;21.90;57.00;;;;;;5031262;28;20402;-61
2021/10/30 02:42:16;;;;;;;0.50;0.20;;;21.90;57.00;;;;;;5034217;28;20049;-61
2021/10/30 02:44:43;;;;;;;1.00;0.40;;;21.80;57.00;;;;;;5035719;28;20045;-61
2021/10/30 02:47:12;;;;;;;0.60;0.10;;;21.80;57.10;;;;;;5035878;28;20045;-62
2021/10/30 02:49:39;;;;;;;0.10;0.10;;;21.80;57.00;;;;;;5035900;28;20041;-61
2021/10/30 02:52:07;;;;;;;0.20;0.20;;;21.80;57.00;;;;;;5032390;28;20499;-60
2021/10/30 02:54:35;;;;;;;1.50;0.60;;;21.80;57.00;;;;;;5031094;28;20041;-61
2021/10/30 02:57:02;;;;;;;0.30;0.20;;;21.80;57.00;;;;;;5035651;28;20419;-61
2021/10/30 02:59:29;;;;;;;0.10;0.10;;;21.90;57.00;;;;;;5044601;28;20036;-62
2021/10/30 03:01:56;;;;;;;0.20;0.15;;;21.90;57.00;;;;;;5048693;28;20052;-61
2021/10/30 03:04:24;;;;;;;0.47;0.10;;;21.90;57.00;;;;;;5034634;28;20043;-62
2021/10/30 03:06:51;;;;;;;0.40;0.25;;;21.90;57.00;;;;;;5030835;28;20505;-61
2021/10/30 03:09:18;;;;;;;0.73;0.65;;;21.90;57.00;;;;;;5033298;28;20417;-60
2021/10/30 03:11:45;;;;;;;0.98;0.35;;;21.90;57.00;;;;;;5035589;28;20052;-61
2021/10/30 03:14:12;;;;;;;0.20;0.20;;;21.90;57.00;;;;;;5035287;28;20409;-61
2021/10/30 03:16:40;;;;;;;1.27;0.45;;;21.90;57.00;;;;;;5042991;28;20049;-60
2021/10/30 03:19:07;;;;;;;0.40;0.20;;;21.90;57.00;;;;;;5031467;28;20497;-61
2021/10/30 03:21:35;;;;;;;0.35;0.20;;;21.80;56.90;;;;;;5029664;28;20034;-61
2021/10/30 03:24:02;;;;;;;0.30;0.30;;;21.90;57.00;;;;;;5034467;28;20063;-61
2021/10/30 03:26:29;;;;;;;2.83;0.10;;;21.90;57.00;;;;;;5035097;28;20183;-61
2021/10/30 03:28:56;;;;;;;0.25;0.25;;;21.90;57.10;;;;;;5035020;28;20037;-61
2021/10/30 03:31:23;;;;;;;2.17;0.55;;;21.90;57.10;;;;;;5033623;28;20037;-61
2021/10/30 03:33:50;;;;;;;0.25;0.22;;;21.90;57.20;;;;;;5030144;28;20636;-61
2021/10/30 03:36:17;;;;;;;0.20;0.20;;;21.90;57.20;;;;;;5033693;28;20045;-62
2021/10/30 03:38:46;;;;;;;2.88;0.10;;;21.90;57.20;;;;;;5034801;28;20531;-61
2021/10/30 03:41:13;;;;;;;0.88;0.20;;;21.90;57.30;;;;;;5035129;28;20481;-60
2021/10/30 03:43:42;;;;;;;0.50;0.20;;;21.90;57.30;;;;;;5034776;28;20169;-61
2021/10/30 03:46:09;;;;;;;0.22;0.22;;;21.80;57.30;;;;;;5031539;28;20041;-60
2021/10/30 03:48:37;;;;;;;0.45;0.45;;;21.90;57.40;;;;;;5030788;28;20433;-60
2021/10/30 03:51:04;;;;;;;0.10;0.10;;;21.90;57.40;;;;;;5034086;28;20049;-61
2021/10/30 03:53:31;;;;;;;0.45;0.10;;;21.90;57.40;;;;;;5042233;28;20053;-61
2021/10/30 03:55:59;;;;;;;0.40;0.30;;;21.90;57.60;;;;;;5042843;28;20057;-62
2021/10/30 03:58:26;;;;;;;0.82;0.57;;;21.90;57.60;;;;;;5034024;28;20146;-61
2021/10/30 04:00:53;;;;;;;0.28;0.10;;;21.90;57.60;;;;;;5055736;28;20041;-62
2021/10/30 04:03:20;;;;;;;1.65;0.20;;;21.90;57.70;;;;;;5033216;28;20072;-61
2021/10/30 04:05:47;;;;;;;0.55;0.55;;;21.90;57.70;;;;;;5035789;28;20046;-61
2021/10/30 04:08:18;;;;;;;0.60;0.30;;;21.90;57.70;;;;;;5030036;28;20746;-62
2021/10/30 04:10:45;;;;;;;0.70;0.10;;;21.90;57.70;;;;;;5034586;28;20246;-61
2021/10/30 04:13:14;;;;;;;0.28;0.10;;;21.90;57.80;;;;;;5031916;28;20041;-62
2021/10/30 04:15:41;;;;;;;1.20;0.10;;;21.90;57.80;;;;;;5030278;28;20061;-61
2021/10/30 04:18:08;;;;;;;0.22;0.20;;;21.90;57.80;;;;;;5033737;28;20112;-60
2021/10/30 04:20:35;;;;;;;0.77;0.20;;;21.90;57.80;;;;;;5034560;28;20633;-60
2021/10/30 04:23:03;;;;;;;0.20;0.10;;;21.90;57.80;;;;;;5034310;28;20060;-61
2021/10/30 04:25:30;;;;;;;2.13;0.10;;;21.90;57.90;;;;;;5033640;28;20041;-62
2021/10/30 04:27:57;;;;;;;2.20;0.20;;;21.90;58.00;;;;;;5030133;28;20515;-62
2021/10/30 04:30:25;;;;;;;1.52;0.20;;;21.90;58.00;;;;;;5056377;28;20074;-63
2021/10/30 04:32:52;;;;;;;0.43;0.20;;;21.90;57.90;;;;;;5035563;28;20037;-63
2021/10/30 04:35:20;;;;;;;0.60;0.10;;;21.90;57.90;;;;;;5035125;28;20129;-61
2021/10/30 04:37:46;;;;;;;2.03;0.20;;;21.90;57.90;;;;;;5038153;28;20064;-62
2021/10/30 04:40:14;;;;;;;0.68;0.35;;;21.90;57.90;;;;;;5035813;28;20044;-61
2021/10/30 04:42:40;;;;;;;0.52;0.52;;;21.90;57.90;;;;;;5033690;28;20099;-61
2021/10/30 04:45:08;;;;;;;0.95;0.20;;;21.90;57.90;;;;;;5037799;28;20041;-62
2021/10/30 04:47:37;;;;;;;1.05;0.10;;;21.90;58.00;;;;;;5037995;28;20521;-61
2021/10/30 04:50:05;;;;;;;0.45;0.10;;;21.90;57.90;;;;;;5038435;28;20037;-62
2021/10/30 04:52:32;;;;;;;0.20;0.10;;;21.90;57.90;;;;;;5037605;28;20060;-62
2021/10/30 04:54:59;;;;;;;1.25;0.30;;;21.90;57.90;;;;;;5033201;28;20043;-62
2021/10/30 04:57:26;;;;;;;2.17;0.40;;;21.90;57.90;;;;;;5050299;28;20048;-62
2021/10/30 04:59:53;;;;;;;0.40;0.40;;;21.90;58.00;;;;;;5055719;28;20048;-62
2021/10/30 05:02:20;;;;;;;0.30;0.20;;;21.90;58.00;;;;;;5047669;28;20041;-61
2021/10/30 05:04:49;;;;;;;1.10;0.82;;;21.90;58.00;;;;;;5039473;28;20119;-61
2021/10/30 05:07:16;;;;;;;0.55;0.10;;;21.90;58.00;;;;;;5049204;28;20037;-62
2021/10/30 05:09:43;;;;;;;0.35;0.15;;;21.90;58.00;;;;;;5033385;28;20057;-62
2021/10/30 05:12:10;;;;;;;2.28;0.15;;;21.90;58.00;;;;;;5037039;28;20041;-61
2021/10/30 05:14:37;;;;;;;0.63;0.25;;;21.90;58.00;;;;;;5033660;28;20049;-61
2021/10/30 05:17:05;;;;;;;1.88;0.10;;;21.90;58.10;;;;;;5037513;28;20405;-61
2021/10/30 05:19:32;;;;;;;1.95;0.20;;;21.90;58.30;;;;;;5049202;28;20073;-60
2021/10/30 05:22:00;;;;;;;0.30;0.20;;;21.90;58.40;;;;;;5032873;28;20051;-60
2021/10/30 05:24:28;;;;;;;0.40;0.40;;;21.90;58.50;;;;;;5030631;28;20056;-60
2021/10/30 05:26:55;;;;;;;4.57;0.10;;;21.90;58.50;;;;;;5037464;28;20585;-60
2021/10/30 05:29:22;;;;;;;4.78;0.20;;;21.90;58.50;;;;;;5039226;28;20032;-60
2021/10/30 05:31:49;;;;;;;1.15;0.17;;;21.90;58.50;;;;;;5055326;28;20037;-61
2021/10/30 05:34:16;;;;;;;2.80;0.32;;;21.90;58.50;;;;;;5034414;28;20041;-60
2021/10/30 05:37:03;;;;;;;3.30;0.22;;;21.90;58.50;;;;;;5032889;28;20425;-61
2021/10/30 05:39:43;;;;;;;1.67;0.10;;;21.90;58.50;;;;;;5048552;28;20060;-60
2021/10/30 05:42:11;;;;;;;0.85;0.17;;;21.90;58.50;;;;;;5047069;28;20053;-60
2021/10/30 05:44:39;;;;;;;1.10;0.10;;;21.90;58.50;;;;;;5046148;28;20100;-61
2021/10/30 05:47:08;;;;;;;1.95;0.20;;;21.90;58.40;;;;;;5045203;28;20052;-61
2021/10/30 05:49:37;;;;;;;0.60;0.43;;;21.90;58.40;;;;;;5043611;28;20626;-61
2021/10/30 05:52:06;;;;;;;0.30;0.10;;;21.90;58.40;;;;;;5046013;28;20025;-61
2021/10/30 05:54:33;;;;;;;0.25;0.10;;;21.90;58.40;;;;;;5044847;28;20052;-62
2021/10/30 05:57:01;;;;;;;2.55;0.10;;;21.90;58.30;;;;;;5043708;28;20041;-47
2021/10/30 05:59:30;;;;;;;2.28;0.10;;;21.90;58.40;;;;;;5026830;28;20041;-45
2021/10/30 06:01:57;;;;;;;0.82;0.10;;;21.90;58.70;;;;;;5046686;28;20045;-51
2021/10/30 06:04:24;;;;;;;1.83;0.25;;;22.00;59.00;;;;;;5044876;28;20075;-53
2021/10/30 06:06:51;;;;;;;0.75;0.10;;;22.00;59.00;;;;;;5043281;28;20052;-52
2021/10/30 06:09:20;;;;;;;1.95;0.43;;;22.10;59.40;;;;;;5046922;28;20417;-50
2021/10/30 06:11:47;;;;;;;9.93;0.20;;;22.20;58.70;;;;;;5046683;28;20519;-48
2021/10/30 06:14:14;;;;;;;1.95;0.22;;;22.20;58.60;;;;;;5046602;28;20037;-48
2021/10/30 06:16:41;;;;;;;2.70;0.20;;;22.20;58.50;;;;;;5045891;28;20041;-49
2021/10/30 06:19:08;;;;;;;7.65;0.47;;;22.20;58.40;;;;;;5032409;28;20043;-52
2021/10/30 06:21:35;;;;;;;3.38;0.10;;;22.20;58.40;;;;;;5032642;28;20080;-50
2021/10/30 06:24:02;;;;;;;0.40;0.10;;;22.20;58.30;;;;;;5035825;28;20052;-50
2021/10/30 06:26:31;;;;;;;5.00;0.10;;;22.20;58.30;;;;;;5035684;28;20063;-51
2021/10/30 06:28:59;;;;;;;0.93;0.10;;;22.20;58.30;;;;;;5036662;28;20041;-50
2021/10/30 06:31:26;;;;;;;0.20;0.10;;;22.20;58.30;;;;;;5056088;28;20107;-52
2021/10/30 06:33:53;;;;;;;0.88;0.10;;;22.20;58.20;;;;;;5045593;28;20154;-54
2021/10/30 06:36:20;;;;;;;1.45;0.10;;;22.20;58.20;;;;;;5032443;28;20807;-53
2021/10/30 06:38:50;;;;;;;0.95;0.30;;;22.20;58.20;;;;;;5017582;28;20114;-52
2021/10/30 06:41:17;;;;;;;0.17;0.10;;;22.20;58.20;;;;;;5036689;28;20138;-50
2021/10/30 06:43:46;;;;;;;2.17;0.43;;;22.20;58.30;;;;;;5046704;28;20144;-50
2021/10/30 06:46:13;;;;;;;2.65;0.30;;;22.20;58.30;;;;;;5047025;28;20047;-52
2021/10/30 06:48:41;;;;;;;2.47;0.25;;;22.10;58.30;;;;;;5030750;28;20693;-50
2021/10/30 06:51:09;;;;;;;2.47;0.15;;;22.20;58.40;;;;;;5034810;28;20056;-51
2021/10/30 06:53:37;;;;;;;1.75;0.15;;;22.20;58.40;;;;;;5034788;28;20533;-49
2021/10/30 06:56:05;;;;;;;0.10;0.10;;;22.10;58.30;;;;;;5035276;28;20112;-53
2021/10/30 06:58:32;;;;;;;1.30;0.22;;;22.10;58.40;;;;;;5030226;28;20060;-49
2021/10/30 07:01:00;;;;;;;2.92;0.10;;;22.10;58.40;;;;;;5044837;28;20071;-50
2021/10/30 07:03:27;;;;;;;1.83;0.40;;;22.20;58.50;;;;;;5042678;28;20132;-54
2021/10/30 07:05:54;;;;;;;3.47;0.20;;;22.10;57.60;;;;;;5044114;28;20048;-56
2021/10/30 07:08:21;;;;;;;1.73;0.52;;;22.00;56.80;;;;;;5045649;28;20508;-54
2021/10/30 07:10:48;;;;;;;0.60;0.10;;;21.90;56.50;;;;;;5044353;28;20053;-53
2021/10/30 07:13:16;;;;;;;5.43;0.38;;;21.70;57.10;;;;;;5043784;28;20628;-61
2021/10/30 07:15:44;;;;;;;0.30;0.22;;;21.60;56.60;;;;;;5046882;28;20132;-60
2021/10/30 07:18:12;;;;;;;0.85;0.45;;;21.40;57.00;;;;;;5035046;28;20034;-62
2021/10/30 07:20:39;;;;;;;0.65;0.30;;;21.30;57.40;;;;;;5039965;28;20475;-60
2021/10/30 07:23:06;;;;;;;0.63;0.10;;;21.10;57.60;;;;;;5042769;28;20072;-63
2021/10/30 07:25:35;;;;;;;1.98;0.22;;;21.00;57.90;;;;;;5034530;28;20051;-53
2021/10/30 07:28:02;;;;;;;3.40;0.22;;;20.90;58.20;;;;;;5035334;28;20036;-58
2021/10/30 07:30:29;;;;;;;1.85;0.52;;;20.90;59.50;;;;;;5055820;28;20040;-57
2021/10/30 07:32:56;;;;;;;3.83;0.20;;;21.00;60.10;;;;;;5034454;28;20059;-56
2021/10/30 07:35:25;;;;;;;28.17;5.38;;;21.20;60.20;;;;;;5036209;28;20433;-66
2021/10/30 07:37:57;;;;;;;36.53;4.57;;;21.40;60.00;;;;;;5043667;28;20056;-62
2021/10/30 07:40:24;;;;;;;24.27;4.57;;;21.70;59.50;;;;;;5045620;28;20662;-61
2021/10/30 07:42:51;;;;;;;22.80;3.13;;;22.00;58.80;;;;;;5036365;28;20418;-62
2021/10/30 07:45:18;;;;;;;15.20;2.25;;;22.30;58.20;;;;;;5032604;28;20053;-61
2021/10/30 07:47:45;;;;;;;10.63;3.70;;;22.50;57.50;;;;;;5039442;28;20536;-61
2021/10/30 07:50:12;;;;;;;23.77;2.55;;;22.70;56.90;;;;;;5036693;28;20045;-61
2021/10/30 07:52:41;;;;;;;15.80;2.13;;;23.00;56.50;;;;;;5043996;28;20047;-59
2021/10/30 07:55:09;;;;;;;17.00;2.17;;;23.20;56.00;;;;;;5044111;28;20107;-62
2021/10/30 07:57:36;;;;;;;13.93;1.38;;;23.30;55.60;;;;;;5045350;28;20048;-61
2021/10/30 08:00:05;;;;;;;11.73;3.13;;;23.50;55.00;;;;;;5043654;28;20514;-61
2021/10/30 08:02:41;;;;;;;26.15;2.72;;;23.80;54.60;;;;;;5041549;28;20045;-61
2021/10/30 08:05:08;;;;;;;15.98;2.72;;;23.90;54.20;;;;;;5043783;28;20045;-62
2021/10/30 08:07:36;;;;;;;22.17;2.92;;;24.10;54.30;;;;;;5042114;28;20048;-63
2021/10/30 08:10:06;;;;;;;26.45;4.70;;;24.20;54.50;;;;;;5044690;28;20073;-62
2021/10/30 08:12:34;;;;;;;13.93;2.33;;;24.40;54.90;;;;;;5048605;28;20136;-62
2021/10/30 08:15:02;;;;;;;14.98;2.17;;;24.50;55.30;;;;;;5048283;28;20037;-63
2021/10/30 08:17:29;;;;;;;13.82;2.55;;;24.60;55.50;;;;;;5051552;28;20607;-63
2021/10/30 08:19:56;;;;;;;10.10;2.25;;;24.70;55.40;;;;;;5051524;28;20125;-63
2021/10/30 08:22:23;;;;;;;10.60;1.83;;;24.90;55.30;;;;;;5046702;28;20056;-63
2021/10/30 08:24:50;;;;;;;13.27;2.88;;;25.00;55.10;;;;;;5047890;28;20094;-63
2021/10/30 08:27:18;;;;;;;14.90;1.73;;;25.10;54.90;;;;;;5049032;28;20059;-62
2021/10/30 08:29:46;;;;;;;14.75;2.42;;;25.20;54.80;;;;;;5046234;28;20037;-62
2021/10/30 08:32:13;;;;;;;12.30;2.28;;;25.30;54.70;;;;;;5046000;28;20052;-63
2021/10/30 08:34:40;;;;;;;108.03;44.20;;;25.40;54.60;;;;;;5045566;28;20045;-60
2021/10/30 08:37:08;;;;;;;64.22;18.65;;;25.50;54.60;;;;;;5044010;28;20536;-61
2021/10/30 08:39:36;;;;;;;26.10;11.10;;;25.60;54.40;;;;;;5046703;28;20041;-61
2021/10/30 08:42:03;;;;;;;26.00;8.50;;;25.60;54.00;;;;;;5046640;28;20096;-61
2021/10/30 08:44:32;;;;;;;19.05;7.32;;;25.70;53.80;;;;;;5045215;28;20070;-61
2021/10/30 08:47:01;;;;;;;19.30;6.57;;;25.80;53.50;;;;;;5043475;28;20052;-61
2021/10/30 08:49:30;;;;;;;14.80;5.05;;;25.80;53.20;;;;;;5046232;28;20052;-61
2021/10/30 08:51:57;;;;;;;16.08;5.07;;;25.90;53.10;;;;;;5045392;28;20041;-60
2021/10/30 08:54:24;;;;;;;16.98;4.10;;;26.00;52.90;;;;;;5045352;28;20041;-62
2021/10/30 08:56:52;;;;;;;10.55;4.53;;;26.00;52.60;;;;;;5045029;28;20049;-61
2021/10/30 08:59:39;;;;;;;11.00;3.10;;;26.10;52.50;;;;;;5045752;28;20045;-59
2021/10/30 09:02:08;;;;;;;10.07;2.95;;;26.20;52.30;;;;;;5046549;28;20047;-61
2021/10/30 09:04:35;;;;;;;12.80;3.45;;;26.10;52.10;;;;;;5046456;28;20043;-61
2021/10/30 09:32:33;;;;;;;12.68;3.17;;;26.20;50.90;;;;;;5099195;27;20129;-48
2021/10/30 09:35:00;;;;;;;14.02;3.30;;;26.00;52.10;;;;;;5080313;28;20067;-48
2021/10/30 09:37:28;;;;;;;10.23;2.97;;;25.70;52.60;;;;;;5082144;28;20405;-48
2021/10/30 09:40:16;;;;;;;15.13;3.78;;;25.50;53.10;;;;;;5074679;28;20041;-48
2021/10/30 09:42:43;;;;;;;29.38;4.50;;;25.30;53.70;;;;;;5076226;28;20135;-46
2021/10/30 09:45:12;;;;;;;18.38;4.25;;;25.10;54.20;;;;;;5070343;28;20413;-48
2021/10/30 09:47:43;;;;;;;19.00;3.80;;;25.00;54.80;;;;;;5071991;28;20044;-48
2021/10/30 09:50:23;;;;;;;16.55;3.45;;;24.90;55.30;;;;;;5073474;28;20055;-50
2021/10/30 09:52:51;;;;;;;17.52;4.07;;;24.90;55.70;;;;;;5081659;28;20036;-49
2021/10/30 09:55:26;;;;;;;32.03;3.58;;;24.70;55.80;;;;;;5079937;28;20413;-50
2021/10/30 09:58:03;;;;;;;7.50;1.67;;;24.70;56.10;;;;;;5064584;28;20069;-53
2021/10/30 10:00:32;;;;;;;11.02;1.77;;;24.60;57.20;;;;;;5072780;28;20044;-51
2021/10/30 10:03:03;;;;;;;5.65;1.42;;;24.70;57.20;;;;;;5075801;28;20051;-49
2021/10/30 10:05:36;;;;;;;14.57;2.85;;;24.80;57.10;;;;;;5073411;28;20044;-52
2021/10/30 10:08:05;;;;;;;14.48;2.28;;;24.90;57.50;;;;;;5070877;28;20048;-54
2021/10/30 10:10:33;;;;;;;2.47;0.52;;;25.10;57.40;;;;;;5075753;28;20036;-49
2021/10/30 10:13:00;;;;;;;8.38;1.70;;;25.20;57.30;;;;;;5076398;28;20466;-48
2021/10/30 10:15:27;;;;;;;8.40;1.05;;;25.30;57.10;;;;;;5074436;28;20036;-51
2021/10/30 10:17:55;;;;;;;4.80;0.75;;;25.50;56.90;;;;;;5074411;28;20043;-55
2021/10/30 10:20:24;;;;;;;11.10;1.52;;;25.60;56.70;;;;;;5073097;28;20042;-54
2021/10/30 10:22:51;;;;;;;7.45;1.60;;;25.80;56.30;;;;;;5076094;28;20032;-49
2021/10/30 10:25:29;;;;;;;7.38;1.48;;;26.00;56.00;;;;;;5070624;28;20505;-51
2021/10/30 10:28:26;;;;;;;4.70;1.30;;;26.10;55.80;;;;;;5073966;28;20496;-57
2021/10/30 10:31:00;;;;;;;11.40;1.52;;;26.30;55.70;;;;;;5070587;28;20060;-56
2021/10/30 10:33:29;;;;;;;11.43;1.38;;;26.30;56.10;;;;;;5060636;28;20040;-56
2021/10/30 10:36:26;;;;;;;4.85;1.15;;;26.30;55.40;;;;;;5059698;28;20127;-55
2021/10/30 10:39:18;;;;;;;7.90;1.20;;;26.40;55.20;;;;;;5056225;28;20054;-51
2021/10/30 10:42:03;;;;;;;7.63;1.48;;;26.40;55.00;;;;;;5057864;28;20056;-55
2021/10/30 10:45:02;;;;;;;15.75;1.23;;;26.40;55.00;;;;;;5062250;28;20044;-56
2021/10/30 10:48:01;;;;;;;3.45;0.70;;;26.40;55.00;;;;;;5053323;28;20044;-56
2021/10/30 10:50:43;;;;;;;2.05;0.88;;;26.40;55.00;;;;;;5058281;28;20049;-49
2021/10/30 10:53:21;;;;;;;4.78;0.50;;;26.40;53.60;;;;;;5059259;28;20157;-53
2021/10/30 10:56:10;;;;;;;2.38;0.22;;;26.30;51.70;;;;;;5065897;28;20511;-50
2021/10/30 10:59:17;;;;;;;0.43;0.10;;;26.10;50.30;;;;;;5053780;28;20054;-45
2021/10/30 11:02:20;;;;;;;4.90;0.52;;;25.80;49.60;;;;;;5061054;28;20514;-58
2021/10/30 11:05:27;;;;;;;29.50;3.00;;;25.60;50.80;;;;;;5062433;28;20044;-54
2021/10/30 11:08:27;;;;;;;9.50;0.20;;;25.40;51.60;;;;;;5056904;28;20143;-61
2021/10/30 11:11:20;;;;;;;1.58;0.17;;;25.30;52.60;;;;;;5060611;28;20101;-54
2021/10/30 11:14:03;;;;;;;4.50;0.20;;;25.20;53.50;;;;;;5059855;28;20044;-55
2021/10/30 11:16:33;;;;;;;0.45;0.13;;;25.10;54.10;;;;;;5056201;28;20143;-54
2021/10/30 11:19:17;;;;;;;12.10;1.67;;;25.10;54.70;;;;;;5053324;28;20592;-55
2021/10/30 11:21:47;;;;;;;3.88;1.08;;;25.00;55.40;;;;;;5057941;28;20081;-50
2021/10/30 11:24:22;;;;;;;8.02;0.98;;;25.10;55.70;;;;;;5058790;28;20409;-56
2021/10/30 11:26:58;;;;;;;5.10;0.95;;;25.20;56.70;;;;;;5057814;28;20037;-51
2021/10/30 11:29:26;;;;;;;3.42;0.60;;;25.30;56.30;;;;;;5053649;28;20213;-61
2021/10/30 11:31:55;;;;;;;2.53;0.60;;;25.40;55.90;;;;;;5060657;28;20532;-54
2021/10/30 11:34:23;;;;;;;8.05;0.65;;;25.60;55.80;;;;;;5059323;28;20623;-62
2021/10/30 11:36:55;;;;;;;11.43;1.40;;;25.70;55.70;;;;;;5058282;28;20044;-54
2021/10/30 11:39:25;;;;;;;7.10;0.77;;;25.80;55.50;;;;;;5057271;28;20040;-51
2021/10/30 11:41:53;;;;;;;4.13;0.68;;;25.90;55.60;;;;;;5058515;28;20045;-50
2021/10/30 11:44:22;;;;;;;6.60;0.38;;;26.00;54.40;;;;;;5058160;28;20119;-55
2021/10/30 11:46:53;;;;;;;0.40;0.10;;;26.00;52.50;;;;;;5061178;28;20043;-47
2021/10/30 11:49:24;;;;;;;3.00;0.73;;;25.70;51.60;;;;;;5054514;28;20069;-49
2021/10/30 11:51:51;;;;;;;1.17;0.20;;;25.50;51.50;;;;;;5059885;28;20033;-41
2021/10/30 11:54:23;;;;;;;1.50;0.30;;;25.30;51.40;;;;;;5059837;28;20037;-41
2021/10/30 11:56:50;;;;;;;1.00;0.10;;;25.10;51.60;;;;;;5063315;28;20043;-56
2021/10/30 11:59:17;;;;;;;1.30;0.20;;;24.90;52.60;;;;;;5058547;28;20037;-65
2021/10/30 12:01:46;;;;;;;1.50;0.15;;;24.80;52.30;;;;;;5056938;28;20243;-55
2021/10/30 12:04:15;;;;;;;0.30;0.10;;;24.60;52.90;;;;;;5058407;28;20043;-60
2021/10/30 12:06:44;;;;;;;0.40;0.10;;;24.60;52.60;;;;;;5056035;28;20041;-60
2021/10/30 12:09:17;;;;;;;0.55;0.10;;;24.40;52.50;;;;;;5053336;28;20413;-50
2021/10/30 12:11:46;;;;;;;0.38;0.10;;;24.40;52.80;;;;;;5057839;28;20680;-50
2021/10/30 12:14:20;;;;;;;1.65;0.20;;;24.30;53.00;;;;;;5059985;28;20565;-52
2021/10/30 12:16:47;;;;;;;0.10;0.10;;;24.10;53.20;;;;;;5060456;28;20044;-52
2021/10/30 12:19:14;;;;;;;0.10;0.10;;;24.10;53.60;;;;;;5055118;28;20552;-53
2021/10/30 12:21:41;;;;;;;0.30;0.10;;;24.00;53.80;;;;;;5058968;28;20040;-54
2021/10/30 12:24:11;;;;;;;0.52;0.28;;;23.90;53.90;;;;;;5059123;28;20040;-52
2021/10/30 12:26:55;;;;;;;0.70;0.20;;;23.80;54.30;;;;;;5056732;28;20047;-50
2021/10/30 12:29:24;;;;;;;0.30;0.10;;;23.70;54.50;;;;;;5056493;28;20051;-54
2021/10/30 12:32:02;;;;;;;0.80;0.20;;;23.60;54.80;;;;;;5059870;28;20162;-49
2021/10/30 12:34:30;;;;;;;1.63;0.20;;;23.50;55.00;;;;;;5062159;28;20047;-48
2021/10/30 12:36:59;;;;;;;1.63;0.17;;;23.40;55.00;;;;;;5055327;28;20066;-48
2021/10/30 12:39:27;;;;;;;1.45;0.10;;;23.30;55.30;;;;;;5056824;28;20040;-45
2021/10/30 12:42:00;;;;;;;0.68;0.40;;;23.30;55.40;;;;;;5054458;28;20048;-48
2021/10/30 12:44:31;;;;;;;0.85;0.10;;;23.20;55.60;;;;;;5058178;28;20039;-49
2021/10/30 12:47:01;;;;;;;0.57;0.45;;;23.10;55.70;;;;;;5055896;28;20861;-48
2021/10/30 12:49:31;;;;;;;0.63;0.63;;;23.10;56.30;;;;;;5058676;28;20036;-48
2021/10/30 12:52:01;;;;;;;0.68;0.10;;;23.00;55.90;;;;;;5056722;28;20041;-49
2021/10/30 12:54:29;;;;;;;2.78;0.20;;;23.00;56.00;;;;;;5057627;28;20044;-51
2021/10/30 12:56:58;;;;;;;1.60;0.10;;;22.90;56.10;;;;;;5055680;28;20043;-50
2021/10/30 12:59:43;;;;;;;0.25;0.10;;;22.80;56.20;;;;;;5051058;28;20077;-50
2021/10/30 13:02:10;;;;;;;3.00;0.10;;;22.80;56.30;;;;;;5057958;28;20505;-54
2021/10/30 13:04:40;;;;;;;0.95;0.10;;;22.80;56.40;;;;;;5058799;28;20052;-52
2021/10/30 13:07:10;;;;;;;2.50;0.20;;;22.70;56.60;;;;;;5052307;28;20091;-52
2021/10/30 13:09:38;;;;;;;2.42;0.25;;;22.70;56.80;;;;;;5053674;28;20090;-52
2021/10/30 13:12:09;;;;;;;6.72;0.20;;;22.70;56.80;;;;;;5056663;28;20028;-54
2021/10/30 13:14:36;;;;;;;3.35;0.47;;;22.60;57.00;;;;;;5057415;28;20051;-54
2021/10/30 13:17:03;;;;;;;0.60;0.20;;;22.60;57.30;;;;;;5054125;28;20503;-53
2021/10/30 13:19:30;;;;;;;2.67;0.17;;;22.50;57.20;;;;;;5054618;28;20037;-61
2021/10/30 13:21:57;;;;;;;0.65;0.10;;;22.50;57.20;;;;;;5058028;28;20053;-55
2021/10/30 13:24:24;;;;;;;0.75;0.20;;;22.50;57.60;;;;;;5059380;28;20101;-56